Anderson Island, WA

4:26 AM PDT on May 26, 2015 (GMT -0700)
Oro Bay | | Change Station
CLOSE
Current Station
Personal Weather Station
Location: Anderson Island, WA
Elevation: 0 ft
Nearby Weather Stations

Elev 0 ft 47.14 °N, 122.70 °W | Updated 11 seconds ago

Overcast
Overcast
52.8 °F
Feels Like 52.8 °F
N
2.5
Wind Variable Wind from SW
Gusts 4.5 mph

Today
High -- | Low -- °F
--% Chance of Precip.
Yesterday
High -- | Low -- °F
Precip. -- in
5:23 AM 8:52 PM
First Quarter, 57% visible
Pressure 30.03 in
Visibility 10.0 miles
Clouds Mostly Cloudy 1000 ft
Overcast 3400 ft
Dew Point 50 °F
Humidity 92%
Rainfall -999.00 in
Snow Depth Not available.
UV 0 out of 12
Pollen 7.40 out of 12
Air Quality Not available.
Flu Activity Sporadic
SPECI KGRF 261118Z AUTO 18003KT 10SM BKN010 OVC034 11/10 A3003 RMK AO2 CIG 010V034 BKN V SCT

More Conditions Fewer Conditions

Pressure 30.03 in
Visibility 10.0 miles
Clouds Mostly Cloudy 1000 ft
Overcast 3400 ft
Dew Point 50 °F
Humidity 92%
Rainfall -999.00 in
Snow Depth Not available.
UV 0 out of 12
Pollen 7.40 out of 12
Air Quality Not available.
Flu Activity Sporadic
SPECI KGRF 261118Z AUTO 18003KT 10SM BKN010 OVC034 11/10 A3003 RMK AO2 CIG 010V034 BKN V SCT

More Conditions Fewer Conditions

10-Day Weather Forecast

Almanac

Astronomy

May. 26, 2015 Rise Set
Actual Time
Civil Twilight
Nautical Twilight
Astronomical Twilight
Moon
Length of Visible Light
Length of Day
Tomorrow will be .
, % of the Moon is Illuminated

Today's Extremes

State Highs State Lows

Community

WunderPhotos

Upload Photos

1,824,304 photos uploaded!

WunderBlogs® & News

Nearby

Air Quality

  Air Quality AQ Index Pollutant
Not available.

Snow Depth

Station Depth Elevation

Earthquake Activity

City Distance Mag. Time & Date
Minimum magnitude displayed is 2.5.

Coastal Water Temperatures

Place Temperature

Stations

Nearby Weather Stations

Station Location Temp. Windchill Dew Point Humidity Wind Precip. Elev Updated Type